Skagen, Denmark
Current Conditions -  °F | °C
As of 3:50 AM on Monday 24 Nov 2014 (Local Time) from ESGP Reporting Station
Light Rain Light Rain  
Wind Chill: 40°   Ceiling: 1500
Heat Index: 46°   Visibility: 3mi
Dew Point: 43°   Wind: 15mph
Humidity: 87%   Direction: 170°S
Pressure: 29.8"   Gusts: NA
Location:  57.72°N, 10.58°E
Report Text: ESGP 240250Z 17013KT 5000 -RA OVC015 08/06 Q1009
Loading
Personal Weather Stations






























Interactive Weather Map New forecast layout! Learn more

10-Day Weather Forecast

Advertisements
Track Severe Weather on mobile